Time;durP1;ratioP1;P1;durP2;ratioP2;P2;SDS_P1;SDS_P2;PMS_P1;PMS_P2;Temp;Humidity;BMP_temperature;BMP_pressure;BME280_temperature;BME280_humidity;BME280_pressure;Samples;Min_cycle;Max_cycle;Signal;HPM_P1;HPM_P2
2023/01/24 00:00:40;;;;;;;25.23;19.52;;;;;;;1.61;100.00;103634.34;5245420;28;20038;-70
2023/01/24 00:03:12;;;;;;;19.63;17.37;;;;;;;1.62;100.00;103638.66;5245275;28;20047;-70
2023/01/24 00:05:45;;;;;;;21.33;17.67;;;;;;;1.62;100.00;103628.38;5245360;28;20112;-70
2023/01/24 00:08:19;;;;;;;19.70;16.98;;;;;;;1.62;100.00;103635.22;5245678;28;20056;-69
2023/01/24 00:11:08;;;;;;;19.38;17.15;;;;;;;1.63;99.54;103637.88;5245207;28;20122;-69
2023/01/24 00:13:40;;;;;;;19.27;17.13;;;;;;;1.64;100.00;103631.97;5245683;28;20063;-70
2023/01/24 00:16:12;;;;;;;18.63;16.63;;;;;;;1.62;99.88;103632.63;5245160;28;20457;-70
2023/01/24 00:18:45;;;;;;;20.70;17.58;;;;;;;1.64;99.79;103639.69;5244858;28;20029;-70
2023/01/24 00:21:19;;;;;;;20.40;16.70;;;;;;;1.62;99.90;103638.66;5244752;28;20034;-69
2023/01/24 00:23:53;;;;;;;21.08;17.30;;;;;;;1.59;99.78;103632.44;5245011;28;20384;-70
2023/01/24 00:26:25;;;;;;;20.90;16.55;;;;;;;1.64;99.64;103633.63;5244729;28;20026;-70
2023/01/24 00:28:58;;;;;;;21.30;17.23;;;;;;;1.64;99.69;103633.63;5244690;28;20091;-69
2023/01/24 00:31:29;;;;;;;;;;;;;;;1.69;99.89;103624.59;5245926;28;20495;-70
2023/01/24 00:34:00;;;;;;;19.92;17.08;;;;;;;1.62;99.40;103630.06;5244843;28;19921;-69
2023/01/24 00:36:32;;;;;;;19.90;16.63;;;;;;;1.64;99.77;103624.25;5244868;28;20038;-70
2023/01/24 00:39:03;;;;;;;21.43;17.33;;;;;;;1.62;99.94;103615.53;5244515;28;20083;-70
2023/01/24 00:41:34;;;;;;;21.03;17.23;;;;;;;1.61;99.72;103615.41;5244610;28;20468;-70
2023/01/24 00:44:06;;;;;;;21.07;17.37;;;;;;;1.64;100.00;103615.63;5244623;28;20036;-70
2023/01/24 00:46:37;;;;;;;22.30;18.67;;;;;;;1.60;99.42;103605.94;5244655;28;20030;-70
2023/01/24 00:49:09;;;;;;;22.90;17.20;;;;;;;1.59;99.33;103607.59;5244704;28;20038;-70
2023/01/24 00:51:40;;;;;;;21.47;17.53;;;;;;;1.57;99.48;103608.28;5244800;28;20038;-69
2023/01/24 00:54:12;;;;;;;20.10;16.93;;;;;;;1.58;99.77;103607.53;5244697;28;20483;-70
2023/01/24 00:56:43;;;;;;;20.40;18.20;;;;;;;1.58;99.68;103612.66;5244462;28;20082;-70
2023/01/24 00:59:15;;;;;;;19.00;16.77;;;;;;;1.55;99.07;103604.72;5244333;28;20029;-70
2023/01/24 01:01:46;;;;;;;18.70;16.40;;;;;;;1.56;99.80;103612.56;5243986;28;20164;-70
2023/01/24 01:04:17;;;;;;;19.43;16.67;;;;;;;1.53;99.88;103604.63;5243463;28;20061;-69
2023/01/24 01:06:49;;;;;;;21.03;16.83;;;;;;;1.53;100.00;103604.63;5244598;28;20040;-70
2023/01/24 01:09:20;;;;;;;20.73;17.50;;;;;;;1.52;98.95;103602.81;5244455;28;20064;-70
2023/01/24 01:11:51;;;;;;;23.77;17.77;;;;;;;1.55;99.81;103602.16;5244147;28;20045;-69
2023/01/24 01:14:23;;;;;;;20.13;17.97;;;;;;;1.55;100.00;103603.03;5244581;28;20037;-70
2023/01/24 01:16:54;;;;;;;19.97;16.77;;;;;;;1.53;99.98;103599.47;5244623;28;20064;-70
2023/01/24 01:19:26;;;;;;;18.70;15.67;;;;;;;1.54;99.82;103597.78;5243988;28;20040;-70
2023/01/24 01:21:57;;;;;;;17.03;14.93;;;;;;;1.49;99.68;103596.59;5243858;28;20497;-70
2023/01/24 01:24:28;;;;;;;20.60;15.07;;;;;;;1.48;99.94;103595.66;5243880;28;20083;-70
2023/01/24 01:27:00;;;;;;;19.10;16.90;;;;;;;1.49;100.00;103596.59;5243907;28;20044;-70
2023/01/24 01:29:33;;;;;;;21.70;16.17;;;;;;;1.49;99.83;103600.03;5243517;28;20061;-70
2023/01/24 01:32:04;;;;;;;18.45;14.75;;;;;;;1.43;99.73;103595.38;5243648;28;20101;-70
2023/01/24 01:34:36;;;;;;;18.37;15.83;;;;;;;1.46;99.58;103607.53;5244277;28;20036;-70
2023/01/24 01:37:07;;;;;;;19.33;16.40;;;;;;;1.44;99.73;103609.13;5244222;28;20040;-70
2023/01/24 01:39:39;;;;;;;17.77;15.10;;;;;;;1.42;99.83;103601.28;5243608;28;20491;-70
2023/01/24 01:42:10;;;;;;;18.27;15.13;;;;;;;1.43;100.00;103600.53;5243575;28;20033;-70
2023/01/24 01:44:43;;;;;;;17.47;14.83;;;;;;;1.42;99.70;103600.41;5243262;28;20127;-70
2023/01/24 01:47:17;;;;;;;;;;;;;;;1.49;99.68;103599.16;5244596;28;20469;-70
2023/01/24 01:50:00;;;;;;;18.38;15.05;;;;;;;1.43;99.78;103591.91;5243399;28;19913;-70
2023/01/24 01:52:39;;;;;;;19.80;16.25;;;;;;;1.48;99.47;103605.94;5243269;28;20167;-70
2023/01/24 01:55:20;;;;;;;21.08;16.48;;;;;;;1.47;99.24;103603.31;5243217;28;20125;-70
2023/01/24 01:57:53;;;;;;;17.85;15.23;;;;;;;1.44;99.10;103602.28;5243219;28;20060;-70
2023/01/24 02:00:25;;;;;;;;;;;;;;;1.57;99.17;103603.16;5243204;28;20038;-70
2023/01/24 02:05:53;;;;;;;19.00;15.68;;;;;;;1.47;99.23;103595.59;5243087;28;20033;-70
2023/01/24 02:08:26;;;;;;;19.67;16.38;;;;;;;1.46;99.30;103597.25;5242913;28;20037;-70
2023/01/24 02:16:01;;;;;;;18.63;15.57;;;;;;;1.47;98.99;103595.59;5242976;28;20041;-70
2023/01/24 02:16:41;;;;;;;19.33;16.08;;;;;;;1.50;99.09;103600.91;5242550;28;20460;-70
2023/01/24 02:19:28;;;;;;;18.53;16.10;;;;;;;1.49;98.97;103596.59;5242818;28;20025;-70
2023/01/24 02:22:11;;;;;;;20.52;17.00;;;;;;;1.51;99.33;103592.44;5243032;28;20101;-69
2023/01/24 02:24:52;;;;;;;19.80;15.27;;;;;;;1.47;98.84;103590.47;5242897;28;20030;-69
2023/01/24 02:27:23;;;;;;;19.10;15.93;;;;;;;1.48;99.30;103590.53;5243071;28;20460;-69
2023/01/24 02:29:56;;;;;;;20.87;16.50;;;;;;;1.48;99.56;103592.22;5240893;28;20057;-70
2023/01/24 02:32:28;;;;;;;19.92;16.83;;;;;;;1.44;99.82;103584.28;5242519;28;20029;-69
2023/01/24 02:34:59;;;;;;;20.77;17.00;;;;;;;1.44;99.63;103592.00;5240905;28;20037;-70
2023/01/24 02:37:34;;;;;;;21.97;18.10;;;;;;;1.47;99.96;103593.03;5242939;28;20036;-70
2023/01/24 02:40:08;;;;;;;21.63;17.67;;;;;;;1.43;99.70;103584.19;5242763;28;20519;-70
2023/01/24 02:42:40;;;;;;;22.20;19.00;;;;;;;1.43;100.00;103590.25;5242443;28;20428;-70
2023/01/24 02:45:25;;;;;;;21.50;18.53;;;;;;;1.41;100.00;103588.34;5242520;28;20029;-69
2023/01/24 02:47:56;;;;;;;21.40;17.40;;;;;;;1.41;100.00;103584.06;5242609;28;20128;-69
2023/01/24 02:53:29;;;;;;;23.20;18.07;;;;;;;1.45;100.00;103592.91;5241022;28;20443;-69
2023/01/24 02:53:31;;;;;;;22.90;17.83;;;;;;;1.43;100.00;103599.59;5241951;28;20040;-69
2023/01/24 02:58:55;;;;;;;;;;;;;;;1.48;100.00;103592.22;5242651;28;20489;-71
2023/01/24 03:01:27;;;;;;;23.20;18.30;;;;;;;1.40;100.00;103594.25;5242324;28;19917;-69
2023/01/24 03:03:58;;;;;;;24.40;18.73;;;;;;;1.44;100.00;103589.44;5241849;28;20030;-69
2023/01/24 03:06:30;;;;;;;21.57;18.20;;;;;;;1.43;100.00;103591.91;5241994;28;20108;-70
2023/01/24 03:09:17;;;;;;;24.37;17.33;;;;;;;1.42;100.00;103591.00;5242101;28;20033;-69
2023/01/24 03:11:49;;;;;;;21.63;17.52;;;;;;;1.42;100.00;103592.69;5242246;28;20441;-69
2023/01/24 03:34:32;;;;;;;23.25;18.23;;;;;;;1.36;100.00;103584.56;5249200;28;20056;-70
2023/01/24 03:37:04;;;;;;;22.55;18.50;;;;;;;1.34;100.00;103581.00;5249521;28;20033;-70
2023/01/24 03:42:26;;;;;;;20.63;17.85;;;;;;;1.26;100.00;103578.75;5248652;28;20037;-70
2023/01/24 03:44:58;;;;;;;22.92;18.35;;;;;;;1.23;100.00;103580.22;5247029;28;20034;-69
2023/01/24 03:47:29;;;;;;;23.07;18.80;;;;;;;1.23;100.00;103577.66;5248379;28;20025;-70
2023/01/24 03:52:50;;;;;;;23.52;18.63;;;;;;;1.19;100.00;103579.13;5248853;28;20045;-69
2023/01/24 03:55:22;;;;;;;22.67;18.23;;;;;;;1.23;100.00;103572.53;5248401;28;20034;-70
2023/01/24 03:57:53;;;;;;;21.80;18.30;;;;;;;1.20;100.00;103577.44;5248876;28;20090;-71
2023/01/24 04:00:24;;;;;;;22.80;18.00;;;;;;;1.25;100.00;103586.34;5248246;28;20033;-69
2023/01/24 04:02:56;;;;;;;22.03;17.87;;;;;;;1.23;100.00;103578.53;5248564;28;20026;-70
2023/01/24 04:05:28;;;;;;;23.47;18.77;;;;;;;1.22;100.00;103575.88;5248779;28;20033;-69
2023/01/24 04:07:59;;;;;;;21.93;18.13;;;;;;;1.16;100.00;103573.78;5248146;28;20025;-70
2023/01/24 04:10:31;;;;;;;22.70;18.60;;;;;;;1.17;100.00;103577.22;5247873;28;20060;-69
2023/01/24 04:13:02;;;;;;;23.87;18.53;;;;;;;1.21;100.00;103582.69;5248078;28;20037;-70
2023/01/24 04:15:33;;;;;;;22.13;18.13;;;;;;;1.21;100.00;103585.25;5248557;28;20034;-69
2023/01/24 04:18:06;;;;;;;22.53;17.53;;;;;;;1.15;100.00;103579.69;5248513;28;20025;-69
2023/01/24 04:20:37;;;;;;;22.38;16.95;;;;;;;1.16;100.00;103578.91;5248496;28;20033;-69
2023/01/24 04:23:11;;;;;;;21.80;18.47;;;;;;;1.14;100.00;103579.56;5248176;28;20472;-70
2023/01/24 04:25:42;;;;;;;22.25;18.00;;;;;;;1.19;100.00;103586.84;5248990;28;20064;-69
2023/01/24 04:28:13;;;;;;;21.63;18.33;;;;;;;1.16;100.00;103580.56;5247931;28;20037;-69
2023/01/24 04:30:45;;;;;;;21.90;17.63;;;;;;;1.21;100.00;103586.94;5246756;28;20045;-69
2023/01/24 04:33:16;;;;;;;19.80;17.67;;;;;;;1.16;100.00;103578.00;5248738;28;20150;-69
2023/01/24 04:35:49;;;;;;;20.42;17.27;;;;;;;1.13;100.00;103586.41;5248649;28;20080;-69
2023/01/24 04:38:20;;;;;;;21.33;17.17;;;;;;;1.12;100.00;103583.72;5246229;28;20088;-70
2023/01/24 04:41:01;;;;;;;21.90;18.13;;;;;;;1.15;100.00;103579.69;5243996;28;20033;-69
2023/01/24 04:43:32;;;;;;;21.10;18.10;;;;;;;1.15;100.00;103591.66;5244838;28;20459;-69
2023/01/24 04:46:04;;;;;;;20.43;16.83;;;;;;;1.17;100.00;103583.25;5243348;28;20109;-70
2023/01/24 04:48:35;;;;;;;22.77;18.07;;;;;;;1.14;100.00;103584.72;5243591;28;20026;-70
2023/01/24 04:51:06;;;;;;;23.73;18.73;;;;;;;1.11;100.00;103587.94;5244696;28;20112;-70
2023/01/24 04:53:39;;;;;;;19.63;16.73;;;;;;;1.12;100.00;103582.03;5244631;28;20033;-69
2023/01/24 04:56:11;;;;;;;;;;;;;;;1.22;100.00;103597.34;5243783;28;20132;-70
2023/01/24 04:58:42;;;;;;;20.73;16.88;;;;;;;1.19;100.00;103589.41;5244604;28;20000;-70
2023/01/24 05:01:13;;;;;;;24.10;18.90;;;;;;;1.14;100.00;103593.31;5244157;28;20116;-70
2023/01/24 05:03:45;;;;;;;22.47;18.20;;;;;;;1.18;100.00;103587.59;5244507;28;20056;-70
2023/01/24 05:06:16;;;;;;;23.33;18.97;;;;;;;1.15;100.00;103589.06;5244427;28;20457;-70
2023/01/24 05:08:48;;;;;;;20.00;16.97;;;;;;;1.11;100.00;103589.63;5244359;28;20029;-69
2023/01/24 05:11:19;;;;;;;20.83;17.23;;;;;;;1.11;100.00;103581.91;5244336;28;20389;-69
2023/01/24 05:13:50;;;;;;;25.53;20.07;;;;;;;1.12;100.00;103587.16;5244280;28;20079;-69
2023/01/24 05:16:22;;;;;;;19.53;16.60;;;;;;;1.14;100.00;103587.28;5244206;28;20033;-70
2023/01/24 05:18:53;;;;;;;22.37;18.57;;;;;;;1.11;100.00;103598.22;5244150;28;20037;-70
2023/01/24 05:21:25;;;;;;;22.33;17.77;;;;;;;1.10;100.00;103596.44;5244017;28;20480;-69
2023/01/24 05:23:56;;;;;;;24.43;19.20;;;;;;;1.09;100.00;103605.84;5244018;28;20033;-69
2023/01/24 05:26:27;;;;;;;23.73;19.40;;;;;;;1.09;100.00;103600.72;5244085;28;20071;-68
2023/01/24 05:28:59;;;;;;;21.57;17.80;;;;;;;1.14;100.00;103602.69;5244474;28;20040;-68
2023/01/24 05:31:30;;;;;;;21.53;18.40;;;;;;;1.09;100.00;103598.13;5244052;28;20123;-69
2023/01/24 05:34:04;;;;;;;19.80;17.20;;;;;;;1.09;100.00;103595.56;5243836;28;20419;-69
2023/01/24 05:36:36;;;;;;;23.20;19.08;;;;;;;1.09;100.00;103600.72;5243750;28;20037;-69
2023/01/24 05:39:07;;;;;;;19.80;17.57;;;;;;;1.12;100.00;103604.28;5243301;28;20052;-68
2023/01/24 05:41:38;;;;;;;20.93;17.37;;;;;;;1.09;100.00;103599.78;5243970;28;20423;-68
2023/01/24 05:44:10;;;;;;;24.37;19.67;;;;;;;1.07;100.00;103606.50;5243966;28;20064;-69
2023/01/24 05:46:43;;;;;;;22.30;17.87;;;;;;;1.13;100.00;103611.16;5243586;28;20481;-68
2023/01/24 05:49:14;;;;;;;21.23;18.23;;;;;;;1.06;100.00;103612.41;5243449;28;20175;-69
2023/01/24 05:51:46;;;;;;;21.33;18.53;;;;;;;1.07;100.00;103609.97;5243411;28;20128;-69
2023/01/24 05:54:17;;;;;;;21.47;17.13;;;;;;;1.06;100.00;103620.13;5243724;28;20033;-69
2023/01/24 05:56:48;;;;;;;20.87;17.00;;;;;;;1.05;100.00;103628.63;5243378;28;20025;-69
2023/01/24 05:59:20;;;;;;;21.27;17.27;;;;;;;1.04;100.00;103626.84;5241879;28;20061;-69
2023/01/24 06:01:51;;;;;;;19.73;16.40;;;;;;;1.09;100.00;103628.06;5243498;28;20373;-69
2023/01/24 06:04:22;;;;;;;22.50;18.47;;;;;;;1.09;100.00;103631.53;5242421;28;20025;-69
2023/01/24 06:06:54;;;;;;;21.40;17.93;;;;;;;1.07;100.00;103627.06;5243182;28;20075;-69
2023/01/24 06:09:25;;;;;;;22.33;18.97;;;;;;;1.07;100.00;103638.22;5241916;28;20116;-69
2023/01/24 06:11:57;;;;;;;20.30;16.90;;;;;;;1.05;100.00;103628.63;5243377;28;20033;-69
2023/01/24 06:14:28;;;;;;;20.93;16.63;;;;;;;1.00;100.00;103638.56;5243015;28;20076;-69
2023/01/24 06:16:59;;;;;;;19.17;16.03;;;;;;;1.04;100.00;103632.84;5242969;28;20473;-69
2023/01/24 06:19:31;;;;;;;19.10;15.77;;;;;;;1.02;100.00;103644.69;5242664;28;20068;-69
2023/01/24 06:22:21;;;;;;;19.50;15.97;;;;;;;1.02;100.00;103638.69;5242738;28;20040;-69
2023/01/24 06:24:52;;;;;;;18.85;15.48;;;;;;;0.96;100.00;103639.13;5243040;28;20037;-69
2023/01/24 06:27:24;;;;;;;20.30;16.97;;;;;;;0.94;100.00;103635.56;5242709;28;20088;-69
2023/01/24 06:29:55;;;;;;;21.47;16.60;;;;;;;0.96;100.00;103638.22;5242686;28;20061;-69
2023/01/24 06:32:44;;;;;;;19.33;15.83;;;;;;;1.00;100.00;103645.38;5242625;28;20362;-69
2023/01/24 06:35:25;;;;;;;20.13;15.95;;;;;;;0.99;100.00;103649.63;5242968;28;20033;-69
2023/01/24 06:37:58;;;;;;;20.33;16.98;;;;;;;0.99;100.00;103649.63;5242848;28;20377;-68
2023/01/24 06:40:30;;;;;;;19.52;17.02;;;;;;;1.01;100.00;103657.44;5242286;28;20022;-69
2023/01/24 06:43:02;;;;;;;19.77;16.80;;;;;;;0.96;100.00;103653.66;5242302;28;20037;-69
2023/01/24 06:45:33;;;;;;;19.23;16.00;;;;;;;0.94;100.00;103653.53;5242769;28;20034;-69
2023/01/24 06:48:04;;;;;;;20.00;16.70;;;;;;;0.99;100.00;103659.00;5242514;28;20083;-69
2023/01/24 06:50:36;;;;;;;21.97;16.90;;;;;;;0.97;100.00;103653.75;5241843;28;20140;-69
2023/01/24 06:53:07;;;;;;;24.07;17.00;;;;;;;0.95;100.00;103652.75;5241868;28;20393;-69
2023/01/24 06:55:39;;;;;;;21.43;17.57;;;;;;;0.96;100.00;103659.66;5242784;28;20104;-69
2023/01/24 06:58:10;;;;;;;19.20;15.77;;;;;;;0.93;100.00;103656.88;5242122;28;20079;-69
2023/01/24 07:00:42;;;;;;;22.80;18.13;;;;;;;0.89;100.00;103652.31;5242094;28;20033;-69
2023/01/24 07:03:13;;;;;;;20.87;16.87;;;;;;;0.93;100.00;103653.41;5241462;28;20040;-69
2023/01/24 07:05:44;;;;;;;22.60;17.60;;;;;;;0.87;100.00;103666.69;5242313;28;20034;-69
2023/01/24 07:08:17;;;;;;;21.63;17.47;;;;;;;0.89;100.00;103660.91;5242139;28;20056;-69
2023/01/24 07:10:48;;;;;;;22.83;18.50;;;;;;;0.84;100.00;103662.25;5242064;28;20034;-69
2023/01/24 07:13:20;;;;;;;21.50;18.20;;;;;;;0.90;100.00;103670.41;5241268;28;20492;-69
2023/01/24 07:15:51;;;;;;;21.17;17.43;;;;;;;0.89;100.00;103673.75;5242521;28;20061;-69
2023/01/24 07:18:23;;;;;;;21.63;17.97;;;;;;;0.90;100.00;103674.63;5241031;28;20030;-69
2023/01/24 07:20:55;;;;;;;22.83;19.17;;;;;;;0.89;100.00;103671.16;5241893;28;20092;-69
2023/01/24 07:23:32;;;;;;;24.07;20.50;;;;;;;0.88;100.00;103681.34;5241729;28;20461;-69
2023/01/24 07:26:04;;;;;;;22.85;18.17;;;;;;;0.83;100.00;103685.25;5242792;28;20041;-69
2023/01/24 07:28:35;;;;;;;21.23;18.40;;;;;;;0.82;100.00;103691.16;5242360;28;20037;-69
2023/01/24 07:31:07;;;;;;;20.53;17.33;;;;;;;0.83;100.00;103692.94;5241412;28;20288;-69
2023/01/24 07:33:38;;;;;;;22.70;17.90;;;;;;;0.80;100.00;103693.59;5242108;28;20514;-69
2023/01/24 07:36:12;;;;;;;20.03;16.87;;;;;;;0.78;100.00;103700.31;5241482;28;20112;-69
2023/01/24 07:38:43;;;;;;;21.88;16.98;;;;;;;0.80;100.00;103705.56;5242372;28;20021;-69
2023/01/24 07:41:14;;;;;;;21.67;17.37;;;;;;;0.80;100.00;103708.13;5241350;28;20063;-69
2023/01/24 07:43:46;;;;;;;20.40;16.87;;;;;;;0.75;100.00;103702.63;5241459;28;20045;-69
2023/01/24 07:46:18;;;;;;;22.13;18.30;;;;;;;0.72;100.00;103700.75;5241636;28;20034;-69
2023/01/24 07:48:50;;;;;;;21.65;16.77;;;;;;;0.77;100.00;103707.88;5241629;28;20385;-68
2023/01/24 07:51:21;;;;;;;21.60;17.10;;;;;;;0.74;100.00;103711.09;5241552;28;20036;-69
2023/01/24 07:53:53;;;;;;;19.97;17.07;;;;;;;0.69;100.00;103713.38;5241306;28;20040;-69
2023/01/24 07:56:24;;;;;;;20.67;17.47;;;;;;;0.74;100.00;103716.25;5241380;28;20247;-69
2023/01/24 07:58:57;;;;;;;22.57;17.67;;;;;;;0.69;100.00;103712.44;5241888;28;20079;-69
2023/01/24 08:01:28;;;;;;;21.02;17.02;;;;;;;0.71;100.00;103716.03;5241131;28;20018;-69
2023/01/24 08:04:00;;;;;;;22.53;18.23;;;;;;;0.72;100.00;103722.94;5242110;28;20112;-69
2023/01/24 08:06:31;;;;;;;22.63;17.83;;;;;;;0.73;100.00;103717.94;5241762;28;20059;-69
2023/01/24 08:09:02;;;;;;;22.77;18.27;;;;;;;0.73;100.00;103720.50;5240770;28;20466;-69
2023/01/24 08:11:34;;;;;;;23.13;18.83;;;;;;;0.78;100.00;103723.41;5241250;28;20038;-68
2023/01/24 08:14:05;;;;;;;21.70;18.73;;;;;;;0.79;100.00;103722.66;5242794;28;20080;-68
2023/01/24 08:16:37;;;;;;;21.17;17.40;;;;;;;0.81;100.00;103718.50;5245176;28;20034;-69
2023/01/24 08:19:08;;;;;;;23.33;17.67;;;;;;;0.77;100.00;103721.63;5245010;28;20036;-69
2023/01/24 08:21:39;;;;;;;22.63;17.97;;;;;;;0.75;100.00;103712.03;5243381;28;20037;-69
2023/01/24 08:24:11;;;;;;;23.50;19.20;;;;;;;0.83;100.00;103718.63;5244855;28;20482;-69
2023/01/24 08:26:46;;;;;;;23.40;18.43;;;;;;;0.84;100.00;103720.41;5244649;28;20029;-69
2023/01/24 08:29:17;;;;;;;24.10;18.90;;;;;;;0.79;100.00;103724.28;5244470;28;20078;-69
2023/01/24 08:31:48;;;;;;;22.63;18.70;;;;;;;0.82;100.00;103720.31;5244560;28;20038;-69
2023/01/24 08:34:20;;;;;;;24.80;20.20;;;;;;;0.82;100.00;103722.88;5244703;28;20037;-69
2023/01/24 08:36:51;;;;;;;22.77;18.50;;;;;;;0.88;100.00;103727.56;5244666;28;20108;-69
2023/01/24 08:39:23;;;;;;;21.50;17.23;;;;;;;0.89;100.00;103737.94;5245093;28;20457;-69
2023/01/24 08:41:54;;;;;;;24.87;19.47;;;;;;;0.87;100.00;103739.50;5244600;28;20174;-69
2023/01/24 08:44:25;;;;;;;21.70;17.83;;;;;;;0.92;100.00;103739.88;5244707;28;20099;-69
2023/01/24 08:46:57;;;;;;;21.37;17.27;;;;;;;0.92;100.00;103739.88;5244706;28;20033;-69
2023/01/24 08:49:28;;;;;;;29.87;22.87;;;;;;;0.96;100.00;103747.00;5244425;28;20033;-69
2023/01/24 08:51:59;;;;;;;22.23;17.10;;;;;;;0.93;100.00;103740.75;5244249;28;20037;-69
2023/01/24 08:54:32;;;;;;;20.60;16.73;;;;;;;0.83;100.00;103736.59;5243413;28;20083;-69
2023/01/24 08:57:04;;;;;;;25.13;20.77;;;;;;;0.84;100.00;103749.56;5244453;28;20079;-69
2023/01/24 08:59:36;;;;;;;22.77;17.23;;;;;;;0.85;100.00;103751.34;5244205;28;20131;-69
2023/01/24 09:02:12;;;;;;;21.00;16.23;;;;;;;0.87;100.00;103754.00;5244285;28;20029;-69
2023/01/24 09:04:44;;;;;;;21.67;17.58;;;;;;;0.88;100.00;103748.97;5244821;28;20445;-69
2023/01/24 09:07:15;;;;;;;23.17;17.83;;;;;;;0.91;100.00;103751.78;5243708;28;20036;-69
2023/01/24 09:09:46;;;;;;;21.77;17.97;;;;;;;0.89;100.00;103757.59;5244688;28;20421;-69
2023/01/24 09:12:18;;;;;;;22.30;17.70;;;;;;;0.99;100.00;103759.19;5243832;28;20367;-69
2023/01/24 09:14:49;;;;;;;22.90;18.37;;;;;;;1.00;100.00;103754.16;5242665;28;20455;-69
2023/01/24 09:17:20;;;;;;;20.73;17.90;;;;;;;1.04;100.00;103752.72;5244115;28;20450;-69
2023/01/24 09:19:52;;;;;;;21.20;17.83;;;;;;;1.03;100.00;103763.75;5244337;28;20457;-69
2023/01/24 09:22:23;;;;;;;21.53;17.30;;;;;;;1.06;100.00;103758.84;5243689;28;20377;-69
2023/01/24 09:24:55;;;;;;;25.23;17.67;;;;;;;1.13;100.00;103761.09;5242761;28;20032;-68
2023/01/24 09:27:26;;;;;;;24.80;18.57;;;;;;;1.13;100.00;103750.81;5243621;28;20040;-68
2023/01/24 09:29:57;;;;;;;21.00;17.73;;;;;;;1.17;100.00;103757.09;5244148;28;20057;-68
2023/01/24 09:32:29;;;;;;;21.33;17.37;;;;;;;1.17;99.56;103757.09;5243635;28;20073;-68
2023/01/24 09:35:00;;;;;;;19.70;16.30;;;;;;;1.23;99.66;103757.53;5243581;28;20044;-68
2023/01/24 09:37:31;;;;;;;20.87;16.47;;;;;;;1.28;99.72;103762.22;5243518;28;20112;-68
2023/01/24 09:40:03;;;;;;;19.80;15.70;;;;;;;1.34;99.85;103760.91;5243975;28;20030;-69
2023/01/24 09:42:41;;;;;;;21.57;16.80;;;;;;;1.42;100.00;103763.22;5243482;28;20063;-68
2023/01/24 09:45:28;;;;;;;20.27;16.42;;;;;;;1.38;98.63;103761.22;5242413;28;20033;-69
2023/01/24 09:48:02;;;;;;;19.17;15.65;;;;;;;1.37;98.22;103768.81;5242727;28;20043;-68
2023/01/24 09:50:46;;;;;;;19.58;15.43;;;;;;;1.35;97.87;103770.38;5243221;28;20085;-68
2023/01/24 09:53:21;;;;;;;18.02;14.93;;;;;;;1.39;97.80;103770.72;5243431;28;20192;-68
2023/01/24 09:55:53;;;;;;;17.13;14.18;;;;;;;1.40;97.12;103769.03;5243297;28;20040;-68
2023/01/24 09:58:43;;;;;;;20.50;15.37;;;;;;;1.47;96.63;103768.72;5243013;28;20116;-68
2023/01/24 10:01:15;;;;;;;18.95;14.48;;;;;;;1.42;96.48;103776.09;5243501;28;20044;-68
2023/01/24 10:03:46;;;;;;;18.93;14.53;;;;;;;1.50;96.89;103774.09;5243254;28;20037;-69
2023/01/24 10:06:25;;;;;;;19.67;14.67;;;;;;;1.51;96.61;103774.97;5243269;28;20025;-68
2023/01/24 10:09:34;;;;;;;18.08;14.43;;;;;;;1.67;97.15;103777.84;5242629;28;20067;-68
2023/01/24 10:12:28;;;;;;;20.95;15.77;;;;;;;1.60;95.85;103783.34;5240389;28;20037;-68
2023/01/24 10:15:02;;;;;;;19.58;14.60;;;;;;;1.57;95.95;103788.28;5243048;28;20373;-69
2023/01/24 10:17:56;;;;;;;17.38;13.73;;;;;;;1.67;96.24;103779.53;5242750;28;20029;-68
2023/01/24 10:20:38;;;;;;;17.30;14.40;;;;;;;1.68;96.54;103774.50;5241962;28;20041;-68
2023/01/24 10:23:17;;;;;;;17.48;14.85;;;;;;;1.73;96.18;103773.16;5243259;28;20029;-69
2023/01/24 10:25:51;;;;;;;18.10;14.32;;;;;;;1.77;95.71;103776.84;5242788;28;20037;-69
2023/01/24 10:28:27;;;;;;;15.60;12.75;;;;;;;1.71;94.65;103782.44;5242546;28;20111;-68
2023/01/24 10:31:22;;;;;;;17.48;14.00;;;;;;;1.86;95.26;103781.75;5242231;28;20503;-68
2023/01/24 10:34:18;;;;;;;16.58;13.05;;;;;;;1.86;94.81;103781.75;5242541;28;20412;-68
2023/01/24 10:37:08;;;;;;;15.63;12.95;;;;;;;1.81;94.50;103778.84;5240358;28;20079;-69
2023/01/24 10:39:40;;;;;;;18.73;14.57;;;;;;;1.75;94.51;103775.84;5242370;28;20034;-68
2023/01/24 10:42:30;;;;;;;17.80;13.73;;;;;;;1.78;94.67;103778.63;5240471;28;20473;-69
2023/01/24 10:45:21;;;;;;;17.08;13.90;;;;;;;1.69;93.76;103775.38;5242164;28;20033;-69
2023/01/24 10:47:59;;;;;;;17.40;13.50;;;;;;;1.63;93.95;103781.00;5242636;28;20025;-68
2023/01/24 10:50:40;;;;;;;17.38;13.48;;;;;;;1.64;93.24;103772.47;5242156;28;20029;-68
2023/01/24 10:53:21;;;;;;;16.33;13.00;;;;;;;1.57;93.10;103770.28;5241787;28;20033;-69
2023/01/24 10:56:03;;;;;;;15.68;12.60;;;;;;;1.65;92.75;103769.16;5242504;28;20464;-68
2023/01/24 10:58:39;;;;;;;17.27;13.30;;;;;;;1.73;93.53;103775.72;5241873;28;20377;-69
2023/01/24 11:01:20;;;;;;;15.75;12.32;;;;;;;1.73;92.92;103770.59;5241878;28;20034;-69
2023/01/24 11:03:52;;;;;;;16.08;12.10;;;;;;;1.80;92.91;103770.25;5242423;28;20041;-68
2023/01/24 11:06:37;;;;;;;16.02;12.70;;;;;;;1.85;92.94;103765.41;5241888;28;20460;-68
2023/01/24 11:09:14;;;;;;;15.15;12.32;;;;;;;1.84;92.42;103760.19;5242081;28;20088;-68
2023/01/24 11:11:54;;;;;;;17.42;13.25;;;;;;;1.95;93.26;103761.84;5242082;28;20487;-68
2023/01/24 11:14:30;;;;;;;16.27;13.23;;;;;;;1.91;93.11;103757.25;5241664;28;20029;-69
2023/01/24 11:17:02;;;;;;;16.25;12.50;;;;;;;1.89;92.60;103757.13;5242107;28;20033;-69
2023/01/24 11:19:38;;;;;;;16.02;13.55;;;;;;;1.93;93.49;103754.00;5241914;28;20060;-68
2023/01/24 11:22:26;;;;;;;14.98;12.73;;;;;;;1.85;91.63;103757.69;5241466;28;20469;-68
2023/01/24 11:25:00;;;;;;;15.48;12.30;;;;;;;1.81;92.00;103753.13;5241531;28;20079;-68
2023/01/24 11:27:43;;;;;;;14.93;13.00;;;;;;;1.83;92.32;103754.13;5242171;28;20095;-68
2023/01/24 11:30:20;;;;;;;13.75;11.85;;;;;;;1.85;92.93;103742.25;5240190;28;20057;-68
2023/01/24 11:33:10;;;;;;;15.90;13.02;;;;;;;1.93;92.49;103741.16;5241664;28;20080;-68
2023/01/24 11:35:54;;;;;;;15.77;12.95;;;;;;;1.93;91.96;103736.00;5242076;28;20053;-68
2023/01/24 11:38:43;;;;;;;16.27;12.85;;;;;;;1.98;92.31;103734.63;5241907;28;20040;-68
2023/01/24 11:41:24;;;;;;;15.60;12.73;;;;;;;1.88;91.47;103734.75;5241341;28;20025;-68
2023/01/24 11:44:01;;;;;;;18.85;12.90;;;;;;;1.92;91.72;103738.47;5241511;28;20025;-68
2023/01/24 11:46:49;;;;;;;14.15;11.68;;;;;;;1.93;91.76;103736.00;5241410;28;20044;-68
2023/01/24 11:49:48;;;;;;;15.75;12.07;;;;;;;1.94;91.24;103735.19;5244770;28;20164;-69
2023/01/24 11:52:27;;;;;;;16.55;13.38;;;;;;;1.95;91.12;103726.69;5245531;28;20033;-69
2023/01/24 11:55:01;;;;;;;16.00;12.00;;;;;;;1.96;90.67;103730.16;5245524;28;20488;-68
2023/01/24 11:57:51;;;;;;;15.63;12.68;;;;;;;1.96;90.57;103727.59;5244489;28;20040;-68
2023/01/24 12:00:58;;;;;;;14.10;12.13;;;;;;;1.99;91.03;103726.13;5246127;28;20036;-69
2023/01/24 12:03:53;;;;;;;16.08;13.07;;;;;;;1.95;90.71;103725.81;5245457;28;20029;-68
2023/01/24 12:07:06;;;;;;;15.13;12.20;;;;;;;2.01;90.59;103723.66;5245326;28;20133;-68
2023/01/24 12:09:56;;;;;;;15.35;12.60;;;;;;;1.97;90.58;103712.25;5244525;28;20041;-68
2023/01/24 12:12:43;;;;;;;14.85;12.93;;;;;;;1.95;91.04;103711.28;5245207;28;20105;-68
2023/01/24 12:15:34;;;;;;;16.60;12.40;;;;;;;1.93;90.79;103705.13;5245197;28;20068;-68
2023/01/24 12:18:20;;;;;;;16.45;12.73;;;;;;;1.94;90.56;103701.75;5245134;28;20060;-68
2023/01/24 12:21:09;;;;;;;16.45;12.50;;;;;;;1.95;89.70;103703.56;5245381;28;20041;-68
2023/01/24 12:24:05;;;;;;;16.90;13.07;;;;;;;1.85;89.78;103700.22;5244923;28;20033;-68